createdAt,value
2023-03-06T00:00:01.347Z,-1.44
2023-03-06T00:03:05.499Z,-1.50
2023-03-06T00:06:09.292Z,-1.46
2023-03-06T00:09:12.833Z,-1.49
2023-03-06T00:12:17.725Z,-1.42
2023-03-06T00:15:22.087Z,-1.44
2023-03-06T00:18:25.649Z,-1.46
2023-03-06T00:21:29.161Z,-1.41
2023-03-06T00:24:33.104Z,-1.38
2023-03-06T00:27:38.724Z,-1.42
2023-03-06T00:30:42.235Z,-1.45
2023-03-06T00:33:45.761Z,-1.40
2023-03-06T00:36:49.182Z,-1.25
2023-03-06T00:39:52.952Z,-1.33
2023-03-06T00:43:08.290Z,-1.30
2023-03-06T00:46:12.357Z,-1.17
2023-03-06T00:49:16.438Z,-1.10
2023-03-06T00:52:20.281Z,-1.14
2023-03-06T00:55:23.755Z,-1.26
2023-03-06T00:58:28.777Z,-1.21
2023-03-06T01:01:33.376Z,-1.17
2023-03-06T01:04:37.696Z,-1.35
2023-03-06T01:07:43.182Z,-1.17
2023-03-06T01:10:53.078Z,-1.68
2023-03-06T01:13:58.100Z,-1.52
2023-03-06T01:17:01.492Z,-1.61
2023-03-06T01:20:06.053Z,-1.75
2023-03-06T01:23:10.289Z,-1.58
2023-03-06T01:29:18.747Z,-1.81
2023-03-06T01:32:24.745Z,-1.72
2023-03-06T01:35:28.557Z,-1.83
2023-03-06T01:38:32.425Z,-1.87
2023-03-06T01:41:36.112Z,-1.96
2023-03-06T01:45:02.891Z,-1.96
2023-03-06T01:48:07.090Z,-2.04
2023-03-06T01:51:11.438Z,-2.15
2023-03-06T01:54:19.615Z,-2.07
2023-03-06T01:57:28.945Z,-2.14
2023-03-06T02:00:33.922Z,-2.31
2023-03-06T02:03:40.342Z,-2.28
2023-03-06T02:06:44.513Z,-2.38
2023-03-06T02:09:48.348Z,-2.39
2023-03-06T02:12:53.457Z,-2.45
2023-03-06T02:15:58.651Z,-2.44
2023-03-06T02:19:04.100Z,-2.46
2023-03-06T02:22:08.015Z,-2.43
2023-03-06T02:25:24.444Z,-2.52
2023-03-06T02:28:28.529Z,-2.45
2023-03-06T02:31:35.955Z,-2.46
2023-03-06T02:34:58.230Z,-2.48
2023-03-06T02:38:06.416Z,-2.48
2023-03-06T02:41:11.778Z,-2.44
2023-03-06T02:44:15.572Z,-2.45
2023-03-06T02:47:19.918Z,-2.43
2023-03-06T02:50:23.605Z,-2.43
2023-03-06T02:53:27.158Z,-2.34
2023-03-06T02:56:32.181Z,-2.39
2023-03-06T02:59:35.992Z,-2.35
2023-03-06T03:02:42.766Z,-2.36
2023-03-06T03:05:46.387Z,-2.27
2023-03-06T03:09:04.488Z,-2.24
2023-03-06T03:12:10.850Z,-2.23
2023-03-06T03:15:15.564Z,-2.26
2023-03-06T03:18:20.004Z,-2.17
2023-03-06T03:21:24.560Z,-2.25
2023-03-06T03:24:30.526Z,-2.19
2023-03-06T03:27:35.468Z,-2.11
2023-03-06T03:30:40.342Z,-2.13
2023-03-06T03:33:45.067Z,-2.18
2023-03-06T03:36:49.466Z,-2.10
2023-03-06T03:39:53.682Z,-2.08
2023-03-06T03:42:58.939Z,-1.88
2023-03-06T03:46:02.624Z,-2.00
2023-03-06T03:49:06.894Z,-1.93
2023-03-06T03:55:15.808Z,-1.62
2023-03-06T03:58:21.129Z,-1.77
2023-03-06T04:01:26.244Z,-1.43
2023-03-06T04:04:30.380Z,-1.59
2023-03-06T04:07:34.029Z,-1.77
2023-03-06T04:10:39.487Z,-1.62
2023-03-06T04:13:46.427Z,-1.81
2023-03-06T04:16:50.478Z,-1.72
2023-03-06T04:19:54.109Z,-1.79
2023-03-06T04:22:59.768Z,-1.87
2023-03-06T04:26:03.783Z,-1.84
2023-03-06T04:29:08.928Z,-1.85
2023-03-06T04:32:12.492Z,-1.74
2023-03-06T04:35:16.653Z,-1.78
2023-03-06T04:38:29.006Z,-1.63
2023-03-06T04:41:32.954Z,-1.70
2023-03-06T04:44:38.050Z,-1.68
2023-03-06T04:47:41.838Z,-1.58
2023-03-06T04:50:45.442Z,-1.50
2023-03-06T04:53:49.034Z,-1.38
2023-03-06T04:56:52.500Z,-1.50
2023-03-06T04:59:58.021Z,-1.63
2023-03-06T05:03:03.046Z,-1.36
2023-03-06T05:06:07.442Z,-1.41
2023-03-06T05:09:11.033Z,-1.49
2023-03-06T05:12:14.724Z,-1.48
2023-03-06T05:15:23.422Z,-1.52
2023-03-06T05:18:27.476Z,-1.20
2023-03-06T05:21:31.617Z,-1.34
2023-03-06T05:24:35.013Z,-1.44
2023-03-06T05:27:39.063Z,-1.37
2023-03-06T05:30:43.969Z,-1.19
2023-03-06T05:33:47.703Z,-1.31
2023-03-06T05:36:51.438Z,-1.17
2023-03-06T05:39:55.609Z,-1.40
2023-03-06T05:42:59.213Z,-1.55
2023-03-06T05:46:06.234Z,-1.56
2023-03-06T05:49:10.145Z,-1.54
2023-03-06T05:52:17.560Z,-1.61
2023-03-06T05:55:22.264Z,-1.58
2023-03-06T05:58:25.664Z,-1.47
2023-03-06T06:01:30.528Z,-1.33
2023-03-06T06:04:34.125Z,-1.35
2023-03-06T06:07:38.235Z,-1.25
2023-03-06T06:10:41.704Z,-1.21
2023-03-06T06:13:45.606Z,-1.17
2023-03-06T06:16:50.814Z,-1.28
2023-03-06T06:19:54.920Z,-1.21
2023-03-06T06:22:58.511Z,-1.23
2023-03-06T06:26:03.146Z,-1.20
2023-03-06T06:29:06.827Z,-1.16
2023-03-06T06:32:11.857Z,-1.12
2023-03-06T06:35:15.622Z,-1.06
2023-03-06T06:38:19.394Z,-0.98
2023-03-06T06:44:46.541Z,-0.82
2023-03-06T06:47:52.368Z,-0.77
2023-03-06T06:50:59.032Z,-0.79
2023-03-06T06:54:03.136Z,-0.76
2023-03-06T06:57:06.591Z,-0.75
2023-03-06T07:00:14.008Z,-0.59
2023-03-06T07:03:19.070Z,-0.71
2023-03-06T07:06:23.126Z,-0.58
2023-03-06T07:09:27.114Z,-0.46
2023-03-06T07:12:33.019Z,-0.40
2023-03-06T07:15:36.538Z,-0.46
2023-03-06T07:18:41.995Z,-0.31
2023-03-06T07:21:45.639Z,-0.32
2023-03-06T07:24:49.129Z,-0.29
2023-03-06T07:27:54.432Z,-0.29
2023-03-06T07:30:58.190Z,-0.19
2023-03-06T07:34:05.005Z,0.02
2023-03-06T07:37:08.690Z,0.05
2023-03-06T07:40:13.541Z,-0.03
2023-03-06T07:43:19.650Z,0.15
2023-03-06T07:46:31.050Z,0.23
2023-03-06T07:49:36.493Z,0.19
2023-03-06T07:52:40.043Z,0.13
2023-03-06T07:55:43.615Z,0.06
2023-03-06T07:58:48.752Z,0.34
2023-03-06T08:01:52.631Z,0.47
2023-03-06T08:04:57.703Z,0.46
2023-03-06T08:08:01.336Z,0.52
2023-03-06T08:11:05.075Z,0.67
2023-03-06T08:14:08.460Z,0.84
2023-03-06T08:17:12.096Z,0.98
2023-03-06T08:20:17.576Z,0.82
2023-03-06T08:23:21.309Z,1.06
2023-03-06T08:26:27.268Z,1.06
2023-03-06T08:29:32.309Z,1.10
2023-03-06T08:32:37.345Z,1.15
2023-03-06T08:35:42.610Z,1.20
2023-03-06T08:38:46.116Z,1.27
2023-03-06T08:41:49.487Z,1.17
2023-03-06T08:44:52.984Z,1.25
2023-03-06T08:47:56.459Z,1.30
2023-03-06T08:51:01.540Z,1.35
2023-03-06T08:54:05.493Z,1.47
2023-03-06T08:57:09.561Z,1.48
2023-03-06T09:00:14.356Z,1.38
2023-03-06T09:03:17.955Z,1.44
2023-03-06T09:06:22.922Z,1.55
2023-03-06T09:09:26.421Z,1.52
2023-03-06T09:12:32.642Z,1.51
2023-03-06T09:15:40.738Z,1.59
2023-03-06T09:18:44.161Z,1.59
2023-03-06T09:21:49.270Z,1.77
2023-03-06T09:24:53.047Z,1.66
2023-03-06T09:28:10.555Z,1.78
2023-03-06T09:31:18.401Z,1.83
2023-03-06T09:34:22.240Z,1.83
2023-03-06T09:37:27.236Z,1.98
2023-03-06T09:40:40.579Z,2.07
2023-03-06T09:43:47.030Z,2.18
2023-03-06T09:47:22.460Z,2.30
2023-03-06T09:50:31.940Z,2.23
2023-03-06T09:53:51.368Z,2.37
2023-03-06T09:56:54.781Z,2.37
2023-03-06T10:00:04.330Z,2.31
2023-03-06T10:03:19.100Z,2.59
2023-03-06T10:06:28.073Z,2.62
2023-03-06T10:09:42.043Z,2.61
2023-03-06T10:12:53.404Z,2.75
2023-03-06T10:16:08.148Z,2.98
2023-03-06T10:19:15.998Z,2.90
2023-03-06T10:22:27.526Z,3.14
2023-03-06T10:25:38.669Z,3.10
2023-03-06T10:28:48.383Z,3.28
2023-03-06T10:32:03.515Z,3.34
2023-03-06T10:35:17.287Z,3.52
2023-03-06T10:38:24.493Z,3.61
2023-03-06T10:41:31.188Z,3.64
2023-03-06T10:44:34.728Z,3.38
2023-03-06T10:47:40.412Z,3.72
2023-03-06T10:50:43.841Z,3.87
2023-03-06T10:53:53.654Z,3.77
2023-03-06T10:56:58.849Z,3.96
2023-03-06T11:00:05.707Z,3.70
2023-03-06T11:03:22.282Z,3.81
2023-03-06T11:06:35.773Z,3.92
2023-03-06T11:09:41.852Z,4.01
2023-03-06T11:12:59.420Z,4.33
2023-03-06T11:16:06.700Z,4.08
2023-03-06T11:19:24.194Z,4.10
2023-03-06T11:22:34.883Z,4.17
2023-03-06T11:25:41.836Z,4.57
2023-03-06T11:28:51.466Z,4.74
2023-03-06T11:31:59.702Z,4.58
2023-03-06T11:35:07.440Z,4.61
2023-03-06T11:38:18.297Z,4.42
2023-03-06T11:41:31.899Z,4.36
2023-03-06T11:44:48.170Z,4.18
2023-03-06T11:47:59.030Z,4.32
2023-03-06T11:51:08.608Z,4.36
2023-03-06T11:54:14.381Z,4.32
2023-03-06T11:57:22.434Z,4.44
2023-03-06T12:00:42.525Z,4.48
2023-03-06T12:04:03.847Z,4.73
2023-03-06T12:07:21.863Z,4.65
2023-03-06T12:10:31.132Z,4.88
2023-03-06T12:14:00.275Z,4.41
2023-03-06T12:17:20.257Z,4.35
2023-03-06T12:20:45.120Z,4.31
2023-03-06T12:24:09.524Z,4.21
2023-03-06T12:27:21.360Z,4.29
2023-03-06T12:31:03.498Z,4.30
2023-03-06T12:34:21.740Z,4.44
2023-03-06T12:37:38.113Z,4.54
2023-03-06T12:40:55.029Z,4.73
2023-03-06T12:44:37.063Z,4.62
2023-03-06T12:47:45.724Z,4.79
2023-03-06T12:50:55.047Z,4.83
2023-03-06T12:54:01.499Z,4.49
2023-03-06T12:57:09.232Z,4.53
2023-03-06T13:00:55.284Z,4.61
2023-03-06T13:04:22.974Z,4.73
2023-03-06T13:07:41.388Z,4.65
2023-03-06T13:10:49.583Z,4.55
2023-03-06T13:13:53.210Z,4.70
2023-03-06T13:17:16.848Z,4.66
2023-03-06T13:20:36.478Z,4.77
2023-03-06T13:23:52.741Z,4.62
2023-03-06T13:26:58.946Z,4.61
2023-03-06T13:30:25.762Z,4.48
2023-03-06T13:33:56.007Z,4.49
2023-03-06T13:37:32.527Z,4.32
2023-03-06T13:40:37.821Z,4.59
2023-03-06T13:43:45.414Z,4.38
2023-03-06T13:46:58.803Z,4.33
2023-03-06T13:50:15.176Z,4.09
2023-03-06T13:53:46.794Z,4.05
2023-03-06T13:57:28.448Z,4.02
2023-03-06T14:01:16.984Z,4.16
2023-03-06T14:04:45.859Z,4.20
2023-03-06T14:08:03.110Z,3.69
2023-03-06T14:11:18.692Z,3.36
2023-03-06T14:14:33.329Z,3.46
2023-03-06T14:17:40.339Z,3.54
2023-03-06T14:20:47.583Z,3.59
2023-03-06T14:24:00.719Z,3.49
2023-03-06T14:27:04.548Z,3.38
2023-03-06T14:30:09.983Z,2.74
2023-03-06T14:33:14.259Z,2.44
2023-03-06T14:36:21.578Z,2.19
2023-03-06T14:39:31.238Z,2.33
2023-03-06T14:42:35.269Z,2.46
2023-03-06T14:45:39.328Z,2.47
2023-03-06T14:48:44.601Z,2.59
2023-03-06T14:51:53.925Z,2.48
2023-03-06T14:54:58.371Z,2.49
2023-03-06T14:58:06.792Z,2.35
2023-03-06T15:01:13.344Z,2.28
2023-03-06T15:04:26.692Z,2.31
2023-03-06T15:07:34.067Z,2.45
2023-03-06T15:10:38.847Z,2.45
2023-03-06T15:13:42.325Z,2.01
2023-03-06T15:16:45.963Z,1.70
2023-03-06T15:19:54.742Z,1.61
2023-03-06T15:23:00.288Z,1.60
2023-03-06T15:26:16.468Z,1.64
2023-03-06T15:29:23.872Z,1.84
2023-03-06T15:32:34.759Z,2.02
2023-03-06T15:35:39.344Z,2.14
2023-03-06T15:38:46.223Z,2.12
2023-03-06T15:41:49.701Z,2.15
2023-03-06T15:44:55.232Z,2.21
2023-03-06T15:47:58.815Z,2.35
2023-03-06T15:51:03.413Z,2.25
2023-03-06T15:54:12.290Z,2.29
2023-03-06T15:57:22.291Z,2.34
2023-03-06T16:00:28.766Z,2.41
2023-03-06T16:03:32.553Z,2.61
2023-03-06T16:06:36.038Z,2.53
2023-03-06T16:09:41.356Z,2.59
2023-03-06T16:12:48.756Z,2.46
2023-03-06T16:15:52.491Z,2.41
2023-03-06T16:18:55.994Z,2.29
2023-03-06T16:21:59.916Z,2.51
2023-03-06T16:25:05.243Z,2.40
2023-03-06T16:28:14.283Z,2.42
2023-03-06T16:31:17.816Z,2.40
2023-03-06T16:34:21.402Z,2.34
2023-03-06T16:37:25.443Z,2.16
2023-03-06T16:40:32.921Z,2.13
2023-03-06T16:43:37.066Z,2.01
2023-03-06T16:46:45.458Z,2.20
2023-03-06T16:49:48.860Z,2.33
2023-03-06T16:52:54.022Z,2.12
2023-03-06T16:55:58.949Z,1.83
2023-03-06T16:59:02.445Z,1.95
2023-03-06T17:02:06.065Z,1.86
2023-03-06T17:05:11.849Z,1.93
2023-03-06T17:08:15.278Z,1.93
2023-03-06T17:11:21.674Z,1.87
2023-03-06T17:14:25.168Z,1.95
2023-03-06T17:17:28.662Z,1.94
2023-03-06T17:20:32.333Z,1.87
2023-03-06T17:23:36.186Z,1.64
2023-03-06T17:26:41.312Z,1.60
2023-03-06T17:29:44.963Z,1.68
2023-03-06T17:32:48.374Z,1.63
2023-03-06T17:35:51.826Z,1.55
2023-03-06T17:38:57.080Z,1.57
2023-03-06T17:42:03.352Z,1.56
2023-03-06T17:45:09.428Z,1.34
2023-03-06T17:48:13.721Z,1.27
2023-03-06T17:51:17.913Z,1.35
2023-03-06T17:54:22.081Z,1.11
2023-03-06T17:57:27.050Z,0.93
2023-03-06T18:00:30.681Z,0.89
2023-03-06T18:03:36.303Z,0.93
2023-03-06T18:06:40.930Z,0.76
2023-03-06T18:09:44.503Z,0.62
2023-03-06T18:12:49.426Z,0.55
2023-03-06T18:15:52.988Z,0.59
2023-03-06T18:18:57.764Z,0.66
2023-03-06T18:22:01.647Z,0.80
2023-03-06T18:25:05.763Z,0.94
2023-03-06T18:28:10.739Z,0.94
2023-03-06T18:31:17.454Z,1.06
2023-03-06T18:34:21.300Z,1.05
2023-03-06T18:37:25.108Z,1.03
2023-03-06T18:40:29.024Z,0.92
2023-03-06T18:43:35.030Z,1.09
2023-03-06T18:46:40.166Z,0.91
2023-03-06T18:49:46.282Z,0.93
2023-03-06T18:52:50.121Z,0.83
2023-03-06T18:55:55.212Z,0.90
2023-03-06T18:59:02.986Z,0.89
2023-03-06T19:02:06.811Z,0.81
2023-03-06T19:05:10.926Z,0.88
2023-03-06T19:08:15.897Z,0.98
2023-03-06T19:11:19.499Z,0.86
2023-03-06T19:14:24.744Z,0.84
2023-03-06T19:17:31.637Z,0.93
2023-03-06T19:20:35.485Z,0.83
2023-03-06T19:23:39.998Z,0.80
2023-03-06T19:26:43.556Z,0.93
2023-03-06T19:29:48.532Z,0.91
2023-03-06T19:32:51.950Z,0.92
2023-03-06T19:35:55.490Z,0.79
2023-03-06T19:39:00.806Z,0.73
2023-03-06T19:42:05.044Z,0.79
2023-03-06T19:45:10.926Z,0.66
2023-03-06T19:48:15.626Z,0.72
2023-03-06T19:51:19.106Z,0.81
2023-03-06T19:54:24.854Z,0.82
2023-03-06T19:57:29.922Z,0.79
2023-03-06T20:00:34.888Z,0.90
2023-03-06T20:03:39.002Z,0.81
2023-03-06T20:06:45.453Z,0.82
2023-03-06T20:09:49.139Z,0.87
2023-03-06T20:12:55.008Z,0.86
2023-03-06T20:16:03.962Z,0.73
2023-03-06T20:19:08.783Z,0.79
2023-03-06T20:22:12.882Z,0.76
2023-03-06T20:25:16.461Z,0.71
2023-03-06T20:28:20.688Z,0.67
2023-03-06T20:31:30.484Z,0.71
2023-03-06T20:34:34.174Z,0.72
2023-03-06T20:37:37.808Z,0.77
2023-03-06T20:40:43.885Z,0.71
2023-03-06T20:43:47.600Z,0.69
2023-03-06T20:46:53.168Z,0.61
2023-03-06T20:49:56.745Z,0.61
2023-03-06T20:53:00.514Z,0.62
2023-03-06T20:56:04.001Z,0.65
2023-03-06T20:59:17.767Z,0.60
2023-03-06T21:02:23.038Z,0.64
2023-03-06T21:05:26.658Z,0.57
2023-03-06T21:08:30.240Z,0.64
2023-03-06T21:11:35.342Z,0.70
2023-03-06T21:14:38.826Z,0.66
2023-03-06T21:17:43.814Z,0.64
2023-03-06T21:20:47.245Z,0.72
2023-03-06T21:23:51.355Z,0.70
2023-03-06T21:26:54.768Z,0.67
2023-03-06T21:29:58.204Z,0.66
2023-03-06T21:33:03.993Z,0.70
2023-03-06T21:36:08.500Z,0.79
2023-03-06T21:39:12.429Z,0.71
2023-03-06T21:42:15.894Z,0.65
2023-03-06T21:45:20.617Z,0.69
2023-03-06T21:48:25.649Z,0.79
2023-03-06T21:51:29.252Z,0.66
2023-03-06T21:54:32.795Z,0.65
2023-03-06T21:57:36.352Z,0.78
2023-03-06T22:00:41.020Z,0.66
2023-03-06T22:03:46.354Z,0.65
2023-03-06T22:06:49.829Z,0.67
2023-03-06T22:09:54.418Z,0.72
2023-03-06T22:12:57.992Z,0.80
2023-03-06T22:16:01.524Z,0.73
2023-03-06T22:19:07.555Z,0.77
2023-03-06T22:22:13.350Z,0.73
2023-03-06T22:25:17.363Z,0.83
2023-03-06T22:28:20.875Z,0.80
2023-03-06T22:31:26.453Z,0.76
2023-03-06T22:34:31.427Z,0.72
2023-03-06T22:37:34.833Z,0.63
2023-03-06T22:40:38.347Z,0.66
2023-03-06T22:43:42.938Z,0.55
2023-03-06T22:46:47.437Z,0.59
2023-03-06T22:49:52.885Z,0.41
2023-03-06T22:52:56.676Z,0.45
2023-03-06T22:56:00.853Z,0.50
2023-03-06T22:59:05.112Z,0.44
2023-03-06T23:02:09.254Z,0.58
2023-03-06T23:05:14.195Z,0.50
2023-03-06T23:08:18.412Z,0.44
2023-03-06T23:11:23.702Z,0.33
2023-03-06T23:14:49.604Z,0.29
2023-03-06T23:18:11.760Z,0.19
2023-03-06T23:21:35.747Z,0.24
2023-03-06T23:24:58.797Z,0.30
2023-03-06T23:28:03.283Z,0.15
2023-03-06T23:31:10.834Z,0.28
2023-03-06T23:34:15.079Z,0.16
2023-03-06T23:37:20.550Z,0.23
2023-03-06T23:40:24.381Z,0.15
2023-03-06T23:43:29.528Z,0.13
2023-03-06T23:46:34.026Z,0.29
2023-03-06T23:49:38.210Z,0.03
2023-03-06T23:52:43.582Z,-0.04
2023-03-06T23:55:48.555Z,-0.15
2023-03-06T23:58:52.034Z,-0.17
